sensor_id;sensor_type;location;lat;lon;timestamp;P1;durP1;ratioP1;P2;durP2;ratioP2
40807;SDS011;26523;52.504;13.498;2022-09-30T00:02:15;8.93;;;4.78;;
40807;SDS011;26523;52.504;13.498;2022-09-30T00:04:40;12.13;;;5.45;;
40807;SDS011;26523;52.504;13.498;2022-09-30T00:07:06;10.27;;;4.63;;
40807;SDS011;26523;52.504;13.498;2022-09-30T00:09:32;10.80;;;5.70;;
40807;SDS011;26523;52.504;13.498;2022-09-30T00:11:57;10.75;;;5.72;;
40807;SDS011;26523;52.504;13.498;2022-09-30T00:14:23;10.10;;;5.10;;
40807;SDS011;26523;52.504;13.498;2022-09-30T00:16:48;13.35;;;5.25;;
40807;SDS011;26523;52.504;13.498;2022-09-30T00:19:14;11.23;;;5.63;;
40807;SDS011;26523;52.504;13.498;2022-09-30T00:21:40;11.13;;;6.07;;
40807;SDS011;26523;52.504;13.498;2022-09-30T00:24:07;8.38;;;4.82;;
40807;SDS011;26523;52.504;13.498;2022-09-30T00:26:32;7.50;;;4.03;;
40807;SDS011;26523;52.504;13.498;2022-09-30T00:28:59;9.27;;;5.25;;
40807;SDS011;26523;52.504;13.498;2022-09-30T00:31:27;10.32;;;5.65;;
40807;SDS011;26523;52.504;13.498;2022-09-30T00:33:55;10.07;;;5.63;;
40807;SDS011;26523;52.504;13.498;2022-09-30T00:36:36;11.82;;;5.22;;
40807;SDS011;26523;52.504;13.498;2022-09-30T00:39:15;12.60;;;5.30;;
40807;SDS011;26523;52.504;13.498;2022-09-30T00:41:43;10.65;;;4.95;;
40807;SDS011;26523;52.504;13.498;2022-09-30T00:49:58;15.50;;;4.97;;
40807;SDS011;26523;52.504;13.498;2022-09-30T00:52:28;11.73;;;5.47;;
40807;SDS011;26523;52.504;13.498;2022-09-30T00:54:55;10.45;;;4.95;;
40807;SDS011;26523;52.504;13.498;2022-09-30T00:57:25;10.38;;;4.75;;
40807;SDS011;26523;52.504;13.498;2022-09-30T00:59:52;9.07;;;4.45;;
40807;SDS011;26523;52.504;13.498;2022-09-30T01:02:18;8.93;;;4.80;;
40807;SDS011;26523;52.504;13.498;2022-09-30T01:04:44;9.68;;;4.65;;
40807;SDS011;26523;52.504;13.498;2022-09-30T01:07:10;10.75;;;5.93;;
40807;SDS011;26523;52.504;13.498;2022-09-30T01:09:39;9.88;;;4.47;;
40807;SDS011;26523;52.504;13.498;2022-09-30T01:12:08;13.02;;;5.18;;
40807;SDS011;26523;52.504;13.498;2022-09-30T01:14:38;9.90;;;5.28;;
40807;SDS011;26523;52.504;13.498;2022-09-30T01:22:39;7.97;;;4.30;;
40807;SDS011;26523;52.504;13.498;2022-09-30T01:36:17;10.48;;;5.32;;
40807;SDS011;26523;52.504;13.498;2022-09-30T01:41:38;10.93;;;4.68;;
40807;SDS011;26523;52.504;13.498;2022-09-30T01:47:25;8.48;;;4.07;;
40807;SDS011;26523;52.504;13.498;2022-09-30T01:58:31;10.77;;;5.00;;
40807;SDS011;26523;52.504;13.498;2022-09-30T02:01:06;8.95;;;4.93;;
40807;SDS011;26523;52.504;13.498;2022-09-30T02:03:39;12.35;;;5.15;;
40807;SDS011;26523;52.504;13.498;2022-09-30T02:06:14;13.18;;;5.50;;
40807;SDS011;26523;52.504;13.498;2022-09-30T02:11:44;8.70;;;4.45;;
40807;SDS011;26523;52.504;13.498;2022-09-30T02:16:54;8.13;;;4.43;;
40807;SDS011;26523;52.504;13.498;2022-09-30T02:22:11;10.60;;;4.53;;
40807;SDS011;26523;52.504;13.498;2022-09-30T02:24:55;10.63;;;5.20;;
40807;SDS011;26523;52.504;13.498;2022-09-30T02:27:33;10.15;;;5.00;;
40807;SDS011;26523;52.504;13.498;2022-09-30T02:30:06;11.75;;;5.15;;
40807;SDS011;26523;52.504;13.498;2022-09-30T02:32:35;11.60;;;5.40;;
40807;SDS011;26523;52.504;13.498;2022-09-30T02:35:07;10.52;;;5.55;;
40807;SDS011;26523;52.504;13.498;2022-09-30T02:37:40;9.25;;;4.72;;
40807;SDS011;26523;52.504;13.498;2022-09-30T02:40:12;9.52;;;5.13;;
40807;SDS011;26523;52.504;13.498;2022-09-30T02:42:53;10.10;;;4.75;;
40807;SDS011;26523;52.504;13.498;2022-09-30T02:45:20;13.70;;;5.57;;
40807;SDS011;26523;52.504;13.498;2022-09-30T02:53:36;10.52;;;5.30;;
40807;SDS011;26523;52.504;13.498;2022-09-30T02:58:26;10.47;;;5.13;;
40807;SDS011;26523;52.504;13.498;2022-09-30T03:00:54;9.68;;;4.70;;
40807;SDS011;26523;52.504;13.498;2022-09-30T03:03:21;10.85;;;5.35;;
40807;SDS011;26523;52.504;13.498;2022-09-30T03:05:54;9.90;;;4.72;;
40807;SDS011;26523;52.504;13.498;2022-09-30T03:08:19;12.10;;;5.30;;
40807;SDS011;26523;52.504;13.498;2022-09-30T03:10:46;13.80;;;5.72;;
40807;SDS011;26523;52.504;13.498;2022-09-30T03:16:12;10.07;;;5.10;;
40807;SDS011;26523;52.504;13.498;2022-09-30T03:25:12;12.57;;;5.72;;
40807;SDS011;26523;52.504;13.498;2022-09-30T03:30:07;10.88;;;5.20;;
40807;SDS011;26523;52.504;13.498;2022-09-30T03:35:42;11.02;;;4.97;;
40807;SDS011;26523;52.504;13.498;2022-09-30T03:38:30;9.88;;;5.45;;
40807;SDS011;26523;52.504;13.498;2022-09-30T03:41:03;11.27;;;4.95;;
40807;SDS011;26523;52.504;13.498;2022-09-30T03:48:40;13.23;;;5.40;;
40807;SDS011;26523;52.504;13.498;2022-09-30T03:51:07;12.13;;;5.85;;
40807;SDS011;26523;52.504;13.498;2022-09-30T03:53:37;10.95;;;5.28;;
40807;SDS011;26523;52.504;13.498;2022-09-30T03:56:06;10.10;;;5.20;;
40807;SDS011;26523;52.504;13.498;2022-09-30T03:58:32;10.52;;;5.65;;
40807;SDS011;26523;52.504;13.498;2022-09-30T04:00:58;11.98;;;5.88;;
40807;SDS011;26523;52.504;13.498;2022-09-30T04:03:24;10.60;;;4.88;;
40807;SDS011;26523;52.504;13.498;2022-09-30T04:05:52;11.82;;;5.75;;
40807;SDS011;26523;52.504;13.498;2022-09-30T04:08:17;14.70;;;5.55;;
40807;SDS011;26523;52.504;13.498;2022-09-30T04:10:43;11.73;;;5.60;;
40807;SDS011;26523;52.504;13.498;2022-09-30T04:13:09;11.93;;;5.55;;
40807;SDS011;26523;52.504;13.498;2022-09-30T04:15:35;14.32;;;5.80;;
40807;SDS011;26523;52.504;13.498;2022-09-30T04:18:01;9.80;;;4.90;;
40807;SDS011;26523;52.504;13.498;2022-09-30T04:20:28;10.18;;;5.20;;
40807;SDS011;26523;52.504;13.498;2022-09-30T04:22:57;13.05;;;5.28;;
40807;SDS011;26523;52.504;13.498;2022-09-30T04:25:24;13.77;;;5.75;;
40807;SDS011;26523;52.504;13.498;2022-09-30T04:27:50;13.02;;;5.95;;
40807;SDS011;26523;52.504;13.498;2022-09-30T04:30:16;12.32;;;5.80;;
40807;SDS011;26523;52.504;13.498;2022-09-30T04:32:42;12.20;;;5.20;;
40807;SDS011;26523;52.504;13.498;2022-09-30T04:35:09;10.52;;;5.38;;
40807;SDS011;26523;52.504;13.498;2022-09-30T04:37:44;12.40;;;5.82;;
40807;SDS011;26523;52.504;13.498;2022-09-30T04:40:12;16.67;;;6.80;;
40807;SDS011;26523;52.504;13.498;2022-09-30T04:42:39;16.38;;;6.72;;
40807;SDS011;26523;52.504;13.498;2022-09-30T04:45:06;17.77;;;7.10;;
40807;SDS011;26523;52.504;13.498;2022-09-30T04:47:41;17.92;;;7.25;;
40807;SDS011;26523;52.504;13.498;2022-09-30T04:50:08;13.38;;;5.95;;
40807;SDS011;26523;52.504;13.498;2022-09-30T04:52:33;12.65;;;5.85;;
40807;SDS011;26523;52.504;13.498;2022-09-30T04:54:59;14.73;;;4.90;;
40807;SDS011;26523;52.504;13.498;2022-09-30T04:57:25;12.25;;;5.30;;
40807;SDS011;26523;52.504;13.498;2022-09-30T04:59:51;11.25;;;5.45;;
40807;SDS011;26523;52.504;13.498;2022-09-30T05:02:17;10.85;;;4.88;;
40807;SDS011;26523;52.504;13.498;2022-09-30T05:04:42;14.52;;;6.57;;
40807;SDS011;26523;52.504;13.498;2022-09-30T05:07:08;12.32;;;6.32;;
40807;SDS011;26523;52.504;13.498;2022-09-30T05:09:34;12.50;;;5.38;;
40807;SDS011;26523;52.504;13.498;2022-09-30T05:12:00;12.25;;;6.18;;
40807;SDS011;26523;52.504;13.498;2022-09-30T05:14:27;13.45;;;5.75;;
40807;SDS011;26523;52.504;13.498;2022-09-30T05:16:53;10.02;;;5.45;;
40807;SDS011;26523;52.504;13.498;2022-09-30T05:19:19;11.32;;;5.35;;
40807;SDS011;26523;52.504;13.498;2022-09-30T05:21:45;11.57;;;5.25;;
40807;SDS011;26523;52.504;13.498;2022-09-30T05:24:11;10.35;;;4.75;;
40807;SDS011;26523;52.504;13.498;2022-09-30T05:26:37;9.85;;;4.78;;
40807;SDS011;26523;52.504;13.498;2022-09-30T05:29:04;10.48;;;4.63;;
40807;SDS011;26523;52.504;13.498;2022-09-30T05:31:30;17.15;;;6.22;;
40807;SDS011;26523;52.504;13.498;2022-09-30T05:33:56;11.50;;;5.70;;
40807;SDS011;26523;52.504;13.498;2022-09-30T05:36:21;12.25;;;5.32;;
40807;SDS011;26523;52.504;13.498;2022-09-30T05:38:50;16.02;;;5.95;;
40807;SDS011;26523;52.504;13.498;2022-09-30T05:41:16;12.48;;;5.60;;
40807;SDS011;26523;52.504;13.498;2022-09-30T05:43:44;11.20;;;5.68;;
40807;SDS011;26523;52.504;13.498;2022-09-30T05:46:11;13.38;;;5.25;;
40807;SDS011;26523;52.504;13.498;2022-09-30T05:48:37;12.45;;;6.05;;
40807;SDS011;26523;52.504;13.498;2022-09-30T05:51:03;9.63;;;5.10;;
40807;SDS011;26523;52.504;13.498;2022-09-30T05:53:29;10.02;;;4.68;;
40807;SDS011;26523;52.504;13.498;2022-09-30T05:55:56;13.35;;;6.05;;
40807;SDS011;26523;52.504;13.498;2022-09-30T05:58:22;13.05;;;5.63;;
40807;SDS011;26523;52.504;13.498;2022-09-30T06:00:48;13.90;;;5.35;;
40807;SDS011;26523;52.504;13.498;2022-09-30T06:03:15;13.60;;;6.38;;
40807;SDS011;26523;52.504;13.498;2022-09-30T06:05:41;11.73;;;4.95;;
40807;SDS011;26523;52.504;13.498;2022-09-30T06:08:09;13.63;;;5.65;;
40807;SDS011;26523;52.504;13.498;2022-09-30T06:10:35;12.70;;;5.65;;
40807;SDS011;26523;52.504;13.498;2022-09-30T06:13:07;13.43;;;5.88;;
40807;SDS011;26523;52.504;13.498;2022-09-30T06:15:33;11.20;;;5.13;;
40807;SDS011;26523;52.504;13.498;2022-09-30T06:18:00;14.80;;;5.70;;
40807;SDS011;26523;52.504;13.498;2022-09-30T06:20:26;10.27;;;5.43;;
40807;SDS011;26523;52.504;13.498;2022-09-30T06:22:52;12.15;;;5.13;;
40807;SDS011;26523;52.504;13.498;2022-09-30T06:25:18;10.98;;;5.28;;
40807;SDS011;26523;52.504;13.498;2022-09-30T06:27:44;10.43;;;5.47;;
40807;SDS011;26523;52.504;13.498;2022-09-30T06:30:11;13.80;;;6.05;;
40807;SDS011;26523;52.504;13.498;2022-09-30T06:32:37;10.90;;;5.28;;
40807;SDS011;26523;52.504;13.498;2022-09-30T06:35:03;11.38;;;5.07;;
40807;SDS011;26523;52.504;13.498;2022-09-30T06:37:29;9.13;;;4.43;;
40807;SDS011;26523;52.504;13.498;2022-09-30T06:39:54;9.10;;;5.13;;
40807;SDS011;26523;52.504;13.498;2022-09-30T06:42:20;10.82;;;5.88;;
40807;SDS011;26523;52.504;13.498;2022-09-30T06:44:47;10.82;;;5.80;;
40807;SDS011;26523;52.504;13.498;2022-09-30T06:47:13;17.95;;;6.35;;
40807;SDS011;26523;52.504;13.498;2022-09-30T06:49:39;9.63;;;5.05;;
40807;SDS011;26523;52.504;13.498;2022-09-30T06:52:05;13.13;;;5.55;;
40807;SDS011;26523;52.504;13.498;2022-09-30T06:54:33;12.50;;;4.95;;
40807;SDS011;26523;52.504;13.498;2022-09-30T06:56:59;11.48;;;5.10;;
40807;SDS011;26523;52.504;13.498;2022-09-30T06:59:26;12.63;;;6.82;;
40807;SDS011;26523;52.504;13.498;2022-09-30T07:01:51;12.73;;;5.38;;
40807;SDS011;26523;52.504;13.498;2022-09-30T07:04:17;12.13;;;4.95;;
40807;SDS011;26523;52.504;13.498;2022-09-30T07:06:43;14.48;;;6.07;;
40807;SDS011;26523;52.504;13.498;2022-09-30T07:09:09;11.00;;;5.15;;
40807;SDS011;26523;52.504;13.498;2022-09-30T07:11:35;12.60;;;5.70;;
40807;SDS011;26523;52.504;13.498;2022-09-30T07:14:02;11.70;;;5.25;;
40807;SDS011;26523;52.504;13.498;2022-09-30T07:16:29;11.27;;;5.65;;
40807;SDS011;26523;52.504;13.498;2022-09-30T07:18:56;13.00;;;5.88;;
40807;SDS011;26523;52.504;13.498;2022-09-30T07:21:25;13.80;;;5.88;;
40807;SDS011;26523;52.504;13.498;2022-09-30T07:23:50;11.20;;;5.50;;
40807;SDS011;26523;52.504;13.498;2022-09-30T07:26:18;11.82;;;5.38;;
40807;SDS011;26523;52.504;13.498;2022-09-30T07:28:45;9.68;;;5.60;;
40807;SDS011;26523;52.504;13.498;2022-09-30T07:31:13;15.27;;;6.50;;
40807;SDS011;26523;52.504;13.498;2022-09-30T07:33:41;10.48;;;5.40;;
40807;SDS011;26523;52.504;13.498;2022-09-30T07:36:08;11.77;;;5.85;;
40807;SDS011;26523;52.504;13.498;2022-09-30T07:38:36;12.40;;;5.78;;
40807;SDS011;26523;52.504;13.498;2022-09-30T07:41:11;12.00;;;5.70;;
40807;SDS011;26523;52.504;13.498;2022-09-30T07:43:42;12.95;;;6.35;;
40807;SDS011;26523;52.504;13.498;2022-09-30T07:46:10;15.60;;;6.57;;
40807;SDS011;26523;52.504;13.498;2022-09-30T07:48:38;13.20;;;7.18;;
40807;SDS011;26523;52.504;13.498;2022-09-30T07:51:13;12.45;;;6.35;;
40807;SDS011;26523;52.504;13.498;2022-09-30T07:53:42;12.52;;;6.47;;
40807;SDS011;26523;52.504;13.498;2022-09-30T07:56:10;13.75;;;6.68;;
40807;SDS011;26523;52.504;13.498;2022-09-30T07:58:37;16.50;;;7.20;;
40807;SDS011;26523;52.504;13.498;2022-09-30T08:01:03;10.15;;;5.45;;
40807;SDS011;26523;52.504;13.498;2022-09-30T08:03:37;11.73;;;6.00;;
40807;SDS011;26523;52.504;13.498;2022-09-30T08:06:07;11.45;;;6.13;;
40807;SDS011;26523;52.504;13.498;2022-09-30T08:08:38;11.95;;;6.25;;
40807;SDS011;26523;52.504;13.498;2022-09-30T08:11:05;8.50;;;4.68;;
40807;SDS011;26523;52.504;13.498;2022-09-30T08:13:31;10.95;;;5.63;;
40807;SDS011;26523;52.504;13.498;2022-09-30T08:15:57;12.35;;;5.88;;
40807;SDS011;26523;52.504;13.498;2022-09-30T08:18:23;12.70;;;5.53;;
40807;SDS011;26523;52.504;13.498;2022-09-30T08:20:49;11.70;;;5.82;;
40807;SDS011;26523;52.504;13.498;2022-09-30T08:23:15;17.45;;;6.50;;
40807;SDS011;26523;52.504;13.498;2022-09-30T08:25:41;13.82;;;5.90;;
40807;SDS011;26523;52.504;13.498;2022-09-30T08:28:06;12.73;;;5.03;;
40807;SDS011;26523;52.504;13.498;2022-09-30T08:30:35;13.05;;;5.05;;
40807;SDS011;26523;52.504;13.498;2022-09-30T08:33:02;14.20;;;5.05;;
40807;SDS011;26523;52.504;13.498;2022-09-30T08:35:27;11.85;;;5.72;;
40807;SDS011;26523;52.504;13.498;2022-09-30T08:37:53;11.85;;;5.25;;
40807;SDS011;26523;52.504;13.498;2022-09-30T08:40:23;10.93;;;4.80;;
40807;SDS011;26523;52.504;13.498;2022-09-30T08:45:53;9.77;;;5.05;;
40807;SDS011;26523;52.504;13.498;2022-09-30T08:53:53;9.70;;;4.93;;
40807;SDS011;26523;52.504;13.498;2022-09-30T08:56:24;10.75;;;5.28;;
40807;SDS011;26523;52.504;13.498;2022-09-30T08:58:56;8.30;;;4.80;;
40807;SDS011;26523;52.504;13.498;2022-09-30T09:01:29;9.93;;;5.15;;
40807;SDS011;26523;52.504;13.498;2022-09-30T09:03:58;11.40;;;5.53;;
40807;SDS011;26523;52.504;13.498;2022-09-30T09:17:19;9.32;;;5.00;;
40807;SDS011;26523;52.504;13.498;2022-09-30T09:20:03;12.35;;;5.07;;
40807;SDS011;26523;52.504;13.498;2022-09-30T09:22:40;14.82;;;5.15;;
40807;SDS011;26523;52.504;13.498;2022-09-30T09:25:15;17.60;;;5.82;;
40807;SDS011;26523;52.504;13.498;2022-09-30T09:28:00;9.55;;;4.75;;
40807;SDS011;26523;52.504;13.498;2022-09-30T09:30:28;13.90;;;4.78;;
40807;SDS011;26523;52.504;13.498;2022-09-30T09:33:10;10.43;;;4.80;;
40807;SDS011;26523;52.504;13.498;2022-09-30T09:36:00;11.05;;;5.00;;
40807;SDS011;26523;52.504;13.498;2022-09-30T09:41:36;8.68;;;4.25;;
40807;SDS011;26523;52.504;13.498;2022-09-30T09:47:14;8.27;;;4.13;;
40807;SDS011;26523;52.504;13.498;2022-09-30T09:49:42;9.52;;;4.55;;
40807;SDS011;26523;52.504;13.498;2022-09-30T09:57:08;8.27;;;4.47;;
40807;SDS011;26523;52.504;13.498;2022-09-30T09:59:35;8.48;;;4.18;;
40807;SDS011;26523;52.504;13.498;2022-09-30T10:02:02;7.80;;;3.67;;
40807;SDS011;26523;52.504;13.498;2022-09-30T10:04:48;11.75;;;3.90;;
40807;SDS011;26523;52.504;13.498;2022-09-30T10:07:23;8.68;;;4.75;;
40807;SDS011;26523;52.504;13.498;2022-09-30T10:10:03;7.82;;;4.03;;
40807;SDS011;26523;52.504;13.498;2022-09-30T10:12:40;9.15;;;4.57;;
40807;SDS011;26523;52.504;13.498;2022-09-30T10:15:40;9.45;;;4.68;;
40807;SDS011;26523;52.504;13.498;2022-09-30T10:18:01;8.43;;;4.25;;
40807;SDS011;26523;52.504;13.498;2022-09-30T10:20:31;9.48;;;4.53;;
40807;SDS011;26523;52.504;13.498;2022-09-30T10:22:59;8.63;;;4.32;;
40807;SDS011;26523;52.504;13.498;2022-09-30T10:25:27;7.45;;;4.05;;
40807;SDS011;26523;52.504;13.498;2022-09-30T10:27:59;6.43;;;3.55;;
40807;SDS011;26523;52.504;13.498;2022-09-30T10:30:44;7.07;;;3.05;;
40807;SDS011;26523;52.504;13.498;2022-09-30T10:33:22;8.57;;;3.60;;
40807;SDS011;26523;52.504;13.498;2022-09-30T10:36:02;13.13;;;4.63;;
40807;SDS011;26523;52.504;13.498;2022-09-30T10:38:28;9.00;;;3.65;;
40807;SDS011;26523;52.504;13.498;2022-09-30T10:40:56;8.18;;;3.95;;
40807;SDS011;26523;52.504;13.498;2022-09-30T10:43:24;7.85;;;3.20;;
40807;SDS011;26523;52.504;13.498;2022-09-30T10:46:11;6.88;;;3.65;;
40807;SDS011;26523;52.504;13.498;2022-09-30T10:48:54;19.98;;;5.45;;
40807;SDS011;26523;52.504;13.498;2022-09-30T10:51:28;7.75;;;3.40;;
40807;SDS011;26523;52.504;13.498;2022-09-30T10:53:57;7.20;;;3.35;;
40807;SDS011;26523;52.504;13.498;2022-09-30T10:59:49;5.28;;;3.03;;
40807;SDS011;26523;52.504;13.498;2022-09-30T11:04:59;8.35;;;3.70;;
40807;SDS011;26523;52.504;13.498;2022-09-30T11:07:30;10.70;;;4.07;;
40807;SDS011;26523;52.504;13.498;2022-09-30T11:12:39;7.78;;;3.33;;
40807;SDS011;26523;52.504;13.498;2022-09-30T11:15:16;7.13;;;3.20;;
40807;SDS011;26523;52.504;13.498;2022-09-30T11:20:19;6.30;;;2.83;;
40807;SDS011;26523;52.504;13.498;2022-09-30T11:30:42;5.90;;;3.00;;
40807;SDS011;26523;52.504;13.498;2022-09-30T11:33:24;5.32;;;2.75;;
40807;SDS011;26523;52.504;13.498;2022-09-30T11:41:36;9.18;;;3.20;;
40807;SDS011;26523;52.504;13.498;2022-09-30T11:55:31;6.10;;;2.80;;
40807;SDS011;26523;52.504;13.498;2022-09-30T11:58:08;4.60;;;2.40;;
40807;SDS011;26523;52.504;13.498;2022-09-30T12:00:38;6.07;;;2.10;;
40807;SDS011;26523;52.504;13.498;2022-09-30T12:03:10;5.50;;;2.15;;
40807;SDS011;26523;52.504;13.498;2022-09-30T12:05:45;4.13;;;1.77;;
40807;SDS011;26523;52.504;13.498;2022-09-30T12:08:29;5.43;;;2.17;;
40807;SDS011;26523;52.504;13.498;2022-09-30T12:11:06;5.57;;;1.77;;
40807;SDS011;26523;52.504;13.498;2022-09-30T12:13:48;2.28;;;1.50;;
40807;SDS011;26523;52.504;13.498;2022-09-30T12:16:22;6.38;;;1.98;;
40807;SDS011;26523;52.504;13.498;2022-09-30T12:18:56;3.03;;;2.03;;
40807;SDS011;26523;52.504;13.498;2022-09-30T12:21:31;5.82;;;1.98;;
40807;SDS011;26523;52.504;13.498;2022-09-30T12:24:05;3.72;;;1.90;;
40807;SDS011;26523;52.504;13.498;2022-09-30T12:26:37;4.95;;;2.05;;
40807;SDS011;26523;52.504;13.498;2022-09-30T12:34:43;4.50;;;2.30;;
40807;SDS011;26523;52.504;13.498;2022-09-30T12:48:30;6.18;;;2.03;;
40807;SDS011;26523;52.504;13.498;2022-09-30T12:51:00;3.47;;;1.93;;
40807;SDS011;26523;52.504;13.498;2022-09-30T12:53:33;3.28;;;1.70;;
40807;SDS011;26523;52.504;13.498;2022-09-30T12:56:11;3.38;;;1.90;;
40807;SDS011;26523;52.504;13.498;2022-09-30T12:58:43;4.43;;;1.85;;
40807;SDS011;26523;52.504;13.498;2022-09-30T13:01:14;4.03;;;1.53;;
40807;SDS011;26523;52.504;13.498;2022-09-30T13:03:51;3.97;;;1.52;;
40807;SDS011;26523;52.504;13.498;2022-09-30T13:11:50;3.35;;;1.80;;
40807;SDS011;26523;52.504;13.498;2022-09-30T13:14:48;2.50;;;1.50;;
40807;SDS011;26523;52.504;13.498;2022-09-30T13:17:46;5.00;;;1.80;;
40807;SDS011;26523;52.504;13.498;2022-09-30T13:20:48;2.72;;;1.30;;
40807;SDS011;26523;52.504;13.498;2022-09-30T13:23:33;3.88;;;1.52;;
40807;SDS011;26523;52.504;13.498;2022-09-30T13:26:00;10.07;;;2.03;;
40807;SDS011;26523;52.504;13.498;2022-09-30T13:28:28;3.30;;;1.40;;
40807;SDS011;26523;52.504;13.498;2022-09-30T13:31:09;2.90;;;1.42;;
40807;SDS011;26523;52.504;13.498;2022-09-30T13:33:46;3.85;;;1.38;;
40807;SDS011;26523;52.504;13.498;2022-09-30T13:39:16;3.85;;;1.67;;
40807;SDS011;26523;52.504;13.498;2022-09-30T13:42:00;3.10;;;1.63;;
40807;SDS011;26523;52.504;13.498;2022-09-30T13:44:53;5.22;;;1.70;;
40807;SDS011;26523;52.504;13.498;2022-09-30T13:52:25;4.47;;;1.67;;
40807;SDS011;26523;52.504;13.498;2022-09-30T13:54:55;2.50;;;1.40;;
40807;SDS011;26523;52.504;13.498;2022-09-30T13:57:29;3.20;;;1.17;;
40807;SDS011;26523;52.504;13.498;2022-09-30T14:00:09;5.22;;;1.55;;
40807;SDS011;26523;52.504;13.498;2022-09-30T14:03:01;2.30;;;1.23;;
40807;SDS011;26523;52.504;13.498;2022-09-30T14:05:32;1.40;;;0.90;;
40807;SDS011;26523;52.504;13.498;2022-09-30T14:08:19;3.28;;;1.10;;
40807;SDS011;26523;52.504;13.498;2022-09-30T14:11:10;2.30;;;1.10;;
40807;SDS011;26523;52.504;13.498;2022-09-30T14:14:12;7.73;;;2.07;;
40807;SDS011;26523;52.504;13.498;2022-09-30T14:19:47;3.13;;;1.13;;
40807;SDS011;26523;52.504;13.498;2022-09-30T14:22:22;3.25;;;1.27;;
40807;SDS011;26523;52.504;13.498;2022-09-30T14:24:51;2.85;;;1.20;;
40807;SDS011;26523;52.504;13.498;2022-09-30T14:30:05;5.80;;;1.20;;
40807;SDS011;26523;52.504;13.498;2022-09-30T14:35:29;5.50;;;1.00;;
40807;SDS011;26523;52.504;13.498;2022-09-30T14:38:00;2.38;;;1.20;;
40807;SDS011;26523;52.504;13.498;2022-09-30T14:40:30;2.63;;;1.55;;
40807;SDS011;26523;52.504;13.498;2022-09-30T14:43:01;4.75;;;1.05;;
40807;SDS011;26523;52.504;13.498;2022-09-30T14:45:34;2.30;;;0.90;;
40807;SDS011;26523;52.504;13.498;2022-09-30T14:48:12;3.00;;;1.20;;
40807;SDS011;26523;52.504;13.498;2022-09-30T14:50:45;1.85;;;0.85;;
40807;SDS011;26523;52.504;13.498;2022-09-30T14:53:28;1.17;;;0.98;;
40807;SDS011;26523;52.504;13.498;2022-09-30T14:55:57;2.33;;;1.17;;
40807;SDS011;26523;52.504;13.498;2022-09-30T14:58:27;2.63;;;1.00;;
40807;SDS011;26523;52.504;13.498;2022-09-30T15:01:02;2.45;;;1.02;;
40807;SDS011;26523;52.504;13.498;2022-09-30T15:03:36;5.00;;;1.50;;
40807;SDS011;26523;52.504;13.498;2022-09-30T15:06:04;3.63;;;1.35;;
40807;SDS011;26523;52.504;13.498;2022-09-30T15:08:40;4.85;;;1.00;;
40807;SDS011;26523;52.504;13.498;2022-09-30T15:11:05;3.97;;;1.30;;
40807;SDS011;26523;52.504;13.498;2022-09-30T15:13:31;2.08;;;1.00;;
40807;SDS011;26523;52.504;13.498;2022-09-30T15:15:58;2.45;;;1.20;;
40807;SDS011;26523;52.504;13.498;2022-09-30T15:20:59;1.73;;;1.10;;
40807;SDS011;26523;52.504;13.498;2022-09-30T15:23:33;2.80;;;0.93;;
40807;SDS011;26523;52.504;13.498;2022-09-30T15:26:01;3.30;;;1.30;;
40807;SDS011;26523;52.504;13.498;2022-09-30T15:28:27;4.60;;;1.35;;
40807;SDS011;26523;52.504;13.498;2022-09-30T15:30:55;2.08;;;1.10;;
40807;SDS011;26523;52.504;13.498;2022-09-30T15:33:22;4.03;;;1.38;;
40807;SDS011;26523;52.504;13.498;2022-09-30T15:35:51;2.53;;;1.10;;
40807;SDS011;26523;52.504;13.498;2022-09-30T15:38:28;2.40;;;1.27;;
40807;SDS011;26523;52.504;13.498;2022-09-30T15:41:01;5.18;;;1.45;;
40807;SDS011;26523;52.504;13.498;2022-09-30T15:46:29;4.63;;;1.42;;
40807;SDS011;26523;52.504;13.498;2022-09-30T15:48:59;2.20;;;1.27;;
40807;SDS011;26523;52.504;13.498;2022-09-30T15:51:37;5.85;;;1.75;;
40807;SDS011;26523;52.504;13.498;2022-09-30T15:56:38;3.00;;;1.35;;
40807;SDS011;26523;52.504;13.498;2022-09-30T15:59:11;2.65;;;1.08;;
40807;SDS011;26523;52.504;13.498;2022-09-30T16:01:39;5.55;;;2.22;;
40807;SDS011;26523;52.504;13.498;2022-09-30T16:06:42;4.28;;;1.63;;
40807;SDS011;26523;52.504;13.498;2022-09-30T16:11:45;3.97;;;2.17;;
40807;SDS011;26523;52.504;13.498;2022-09-30T16:14:23;3.65;;;1.25;;
40807;SDS011;26523;52.504;13.498;2022-09-30T16:16:52;3.67;;;1.63;;
40807;SDS011;26523;52.504;13.498;2022-09-30T16:19:19;4.40;;;1.70;;
40807;SDS011;26523;52.504;13.498;2022-09-30T16:21:48;5.25;;;1.88;;
40807;SDS011;26523;52.504;13.498;2022-09-30T16:29:39;3.83;;;2.00;;
40807;SDS011;26523;52.504;13.498;2022-09-30T16:32:05;5.47;;;2.30;;
40807;SDS011;26523;52.504;13.498;2022-09-30T16:34:33;5.38;;;2.55;;
40807;SDS011;26523;52.504;13.498;2022-09-30T16:37:03;4.30;;;2.30;;
40807;SDS011;26523;52.504;13.498;2022-09-30T16:39:36;4.78;;;2.70;;
40807;SDS011;26523;52.504;13.498;2022-09-30T16:42:02;4.88;;;2.30;;
40807;SDS011;26523;52.504;13.498;2022-09-30T16:44:28;4.68;;;2.25;;
40807;SDS011;26523;52.504;13.498;2022-09-30T16:46:58;12.02;;;2.63;;
40807;SDS011;26523;52.504;13.498;2022-09-30T16:49:25;4.32;;;2.13;;
40807;SDS011;26523;52.504;13.498;2022-09-30T16:51:50;4.78;;;2.03;;
40807;SDS011;26523;52.504;13.498;2022-09-30T16:54:16;5.32;;;2.17;;
40807;SDS011;26523;52.504;13.498;2022-09-30T16:56:42;4.72;;;2.13;;
40807;SDS011;26523;52.504;13.498;2022-09-30T16:59:15;3.67;;;2.15;;
40807;SDS011;26523;52.504;13.498;2022-09-30T17:01:42;6.55;;;2.63;;
40807;SDS011;26523;52.504;13.498;2022-09-30T17:04:08;9.35;;;2.63;;
40807;SDS011;26523;52.504;13.498;2022-09-30T17:06:34;4.53;;;2.33;;
40807;SDS011;26523;52.504;13.498;2022-09-30T17:09:01;6.80;;;2.63;;
40807;SDS011;26523;52.504;13.498;2022-09-30T17:11:30;7.38;;;3.13;;
40807;SDS011;26523;52.504;13.498;2022-09-30T17:13:58;6.50;;;2.80;;
40807;SDS011;26523;52.504;13.498;2022-09-30T17:16:24;9.57;;;3.80;;
40807;SDS011;26523;52.504;13.498;2022-09-30T17:18:50;7.65;;;3.33;;
40807;SDS011;26523;52.504;13.498;2022-09-30T17:21:17;8.50;;;3.72;;
40807;SDS011;26523;52.504;13.498;2022-09-30T17:23:43;6.45;;;2.83;;
40807;SDS011;26523;52.504;13.498;2022-09-30T17:26:09;7.50;;;3.42;;
40807;SDS011;26523;52.504;13.498;2022-09-30T17:28:35;5.75;;;2.78;;
40807;SDS011;26523;52.504;13.498;2022-09-30T17:31:00;6.72;;;2.97;;
40807;SDS011;26523;52.504;13.498;2022-09-30T17:33:33;7.75;;;3.10;;
40807;SDS011;26523;52.504;13.498;2022-09-30T17:36:02;6.82;;;2.80;;
40807;SDS011;26523;52.504;13.498;2022-09-30T17:38:32;11.07;;;3.50;;
40807;SDS011;26523;52.504;13.498;2022-09-30T17:40:59;6.43;;;2.65;;
40807;SDS011;26523;52.504;13.498;2022-09-30T17:43:43;19.30;;;3.85;;
40807;SDS011;26523;52.504;13.498;2022-09-30T17:46:10;6.05;;;3.05;;
40807;SDS011;26523;52.504;13.498;2022-09-30T17:48:36;5.05;;;2.75;;
40807;SDS011;26523;52.504;13.498;2022-09-30T17:51:03;8.95;;;2.70;;
40807;SDS011;26523;52.504;13.498;2022-09-30T17:53:30;10.20;;;4.40;;
40807;SDS011;26523;52.504;13.498;2022-09-30T17:56:00;8.50;;;4.13;;
40807;SDS011;26523;52.504;13.498;2022-09-30T17:58:26;12.55;;;4.78;;
40807;SDS011;26523;52.504;13.498;2022-09-30T18:00:53;8.43;;;3.95;;
40807;SDS011;26523;52.504;13.498;2022-09-30T18:03:19;9.02;;;3.92;;
40807;SDS011;26523;52.504;13.498;2022-09-30T18:05:45;12.98;;;4.20;;